Time;durP1;ratioP1;P1;durP2;ratioP2;P2;SDS_P1;SDS_P2;PMS_P1;PMS_P2;Temp;Humidity;BMP_temperature;BMP_pressure;BME280_temperature;BME280_humidity;BME280_pressure;Samples;Min_cycle;Max_cycle;Signal;HPM_P1;HPM_P2
2021/12/14 00:01:42;;;;;;;;;;;;;;;12.90;55.40;101652.63;5009390;28;6887;-72
2021/12/14 00:04:28;;;;;;;;;;;;;;;12.88;56.42;101657.66;5011902;28;6820;-72
2021/12/14 00:06:55;;;;;;;;;;;;;;;12.87;55.32;101655.88;4990112;28;6812;-72
2021/12/14 00:09:28;;;;;;;;;;;;;;;12.84;56.11;101655.69;5009823;28;8027;-72
2021/12/14 00:15:04;;;;;;;;;;;;;;;12.81;55.37;101655.50;4996645;28;7039;-72
2021/12/14 00:17:44;;;;;;;;;;;;;;;12.79;56.00;101657.13;4977814;28;7258;-72
2021/12/14 00:20:51;;;;;;;;;;;;;;;12.76;55.43;101660.38;4975658;28;7129;-72
2021/12/14 00:26:08;;;;;;;;;;;;;;;12.73;56.29;101660.22;5009209;28;7080;-72
2021/12/14 00:28:36;;;;;;;;;;;;;;;12.73;55.78;101659.31;4967995;28;7232;-72
2021/12/14 00:31:09;;;;;;;;;;;;;;;12.70;56.36;101662.63;4992183;28;7022;-72
2021/12/14 00:33:39;;;;;;;;;;;;;;;12.68;56.22;101653.03;4987706;28;6811;-72
2021/12/14 00:36:10;;;;;;;;;;;;;;;12.66;55.73;101654.63;4992918;28;7147;-72
2021/12/14 00:38:40;;;;;;;;;;;;;;;12.64;55.65;101649.38;5016596;28;7075;-72
2021/12/14 00:41:15;;;;;;;;;;;;;;;12.62;56.57;101643.25;4999309;28;6819;-72
2021/12/14 00:43:43;;;;;;;;;;;;;;;12.61;56.45;101644.06;5001274;28;6999;-72
2021/12/14 00:46:10;;;;;;;;;;;;;;;12.59;55.68;101641.38;5012010;28;6818;-72
2021/12/14 00:48:38;;;;;;;;;;;;;;;12.58;56.23;101642.19;4982780;28;6804;-72
2021/12/14 00:51:06;;;;;;;;;;;;;;;12.57;56.46;101658.41;5015859;28;6808;-72
2021/12/14 00:53:32;;;;;;;;;;;;;;;12.55;55.88;101657.41;4997153;28;6894;-72
2021/12/14 00:56:04;;;;;;;;;;;;;;;12.53;55.77;101653.88;4999603;28;7222;-72
2021/12/14 00:58:30;;;;;;;;;;;;;;;12.52;56.57;101636.66;4998243;28;7268;-72
2021/12/14 01:01:10;;;;;;;;;;;;;;;12.51;56.81;101614.31;5016238;28;6792;-72
2021/12/14 01:03:40;;;;;;;;;;;;;;;12.48;56.73;101627.00;5015985;28;7030;-72
2021/12/14 01:06:11;;;;;;;;;;;;;;;12.46;57.08;101626.03;4999362;28;7033;-72
2021/12/14 01:08:42;;;;;;;;;;;;;;;12.45;57.03;101642.22;5011758;28;6903;-72
2021/12/14 01:11:18;;;;;;;;;;;;;;;12.45;57.28;101649.94;4990486;28;7019;-72
2021/12/14 01:13:58;;;;;;;;;;;;;;;12.43;57.23;101652.44;5017183;28;7200;-72
2021/12/14 01:16:37;;;;;;;;;;;;;;;12.45;56.91;101657.66;4999276;28;6820;-72
2021/12/14 01:19:14;;;;;;;;;;;;;;;12.43;57.23;101657.59;5014322;28;6815;-72
2021/12/14 01:22:48;;;;;;;;;;;;;;;12.45;57.32;101660.22;4985614;28;6816;-72
2021/12/14 01:25:03;;;;;;;;;;;;;;;12.45;56.41;101653.41;5001845;28;6999;-72
2021/12/14 01:27:47;;;;;;;;;;;;;;;12.46;56.71;101649.19;4978197;28;6983;-72
2021/12/14 01:30:38;;;;;;;;;;;;;;;12.45;57.09;101655.09;5005805;28;7035;-72
2021/12/14 01:33:11;;;;;;;;;;;;;;;12.42;57.39;101644.63;5010803;28;7275;-72
2021/12/14 01:35:41;;;;;;;;;;;;;;;12.40;57.08;101649.66;5014569;28;6832;-72
2021/12/14 01:38:21;;;;;;;;;;;;;;;12.38;57.33;101646.13;4995585;28;6991;-72
2021/12/14 01:40:54;;;;;;;;;;;;;;;12.39;56.91;101660.75;5001739;28;6998;-72
2021/12/14 01:43:44;;;;;;;;;;;;;;;12.39;57.28;101654.75;4999461;28;7880;-72
2021/12/14 01:46:30;;;;;;;;;;;;;;;12.38;57.50;101652.97;5005294;28;6808;-72
2021/12/14 01:48:57;;;;;;;;;;;;;;;12.38;57.07;101658.97;5018158;28;6815;-72
2021/12/14 01:51:24;;;;;;;;;;;;;;;12.38;57.56;101647.81;4995072;28;6823;-72
2021/12/14 01:53:54;;;;;;;;;;;;;;;12.38;57.29;101650.41;4989327;28;6801;-72
2021/12/14 01:56:26;;;;;;;;;;;;;;;12.38;57.34;101655.53;5016919;28;6799;-72
2021/12/14 01:58:59;;;;;;;;;;;;;;;12.37;57.68;101657.19;4979035;28;6804;-72
2021/12/14 02:01:36;;;;;;;;;;;;;;;12.39;57.52;101657.31;5015424;28;7109;-72
2021/12/14 02:04:16;;;;;;;;;;;;;;;12.41;57.06;101655.72;4998406;28;6912;-72
2021/12/14 02:06:44;;;;;;;;;;;;;;;12.41;57.32;101660.84;4994857;28;7138;-72
2021/12/14 02:09:16;;;;;;;;;;;;;;;12.41;56.92;101669.47;4994358;28;6815;-72
2021/12/14 02:11:51;;;;;;;;;;;;;;;12.43;57.47;101667.88;4977161;28;6812;-72
2021/12/14 02:14:20;;;;;;;;;;;;;;;12.44;57.28;101661.94;5004737;28;6815;-72
2021/12/14 02:16:59;;;;;;;;;;;;;;;12.45;57.53;101655.09;4995345;28;6795;-72
2021/12/14 02:19:28;;;;;;;;;;;;;;;12.44;57.31;101648.16;5008363;28;6819;-72
2021/12/14 02:21:55;;;;;;;;;;;;;;;12.44;57.30;101646.50;4994850;28;7601;-72
2021/12/14 02:24:27;;;;;;;;;;;;;;;12.46;57.62;101636.31;4993001;28;7172;-72
2021/12/14 02:26:54;;;;;;;;;;;;;;;12.45;57.50;101625.13;4994070;28;7248;-72
2021/12/14 02:29:30;;;;;;;;;;;;;;;12.45;57.48;101620.00;4993378;28;6997;-72
2021/12/14 02:32:07;;;;;;;;;;;;;;;12.44;57.02;101612.19;4993128;28;6815;-72
2021/12/14 02:35:00;;;;;;;;;;;;;;;12.41;56.91;101596.56;5010615;28;6985;-72
2021/12/14 02:37:53;;;;;;;;;;;;;;;12.35;57.52;101597.97;4994021;28;7157;-72
2021/12/14 02:40:53;;;;;;;;;;;;;;;12.30;57.78;101599.41;4995052;28;6987;-72
2021/12/14 02:43:42;;;;;;;;;;;;;;;12.27;57.65;101599.22;5012031;28;7058;-72
2021/12/14 02:46:36;;;;;;;;;;;;;;;12.27;58.13;101595.75;4985941;28;6828;-72
2021/12/14 02:49:10;;;;;;;;;;;;;;;12.27;57.66;101593.19;4999221;28;6904;-72
2021/12/14 02:51:51;;;;;;;;;;;;;;;12.26;58.35;101591.41;5014609;28;7188;-72
2021/12/14 02:54:28;;;;;;;;;;;;;;;12.27;58.23;101581.22;4994908;28;6827;-72
2021/12/14 02:57:19;;;;;;;;;;;;;;;12.26;58.32;101600.00;4995605;28;6808;-72
2021/12/14 02:59:48;;;;;;;;;;;;;;;12.27;58.43;101598.31;4988670;28;6812;-72
2021/12/14 03:02:25;;;;;;;;;;;;;;;12.27;58.23;101606.94;4996441;28;6828;-72
2021/12/14 03:04:59;;;;;;;;;;;;;;;12.28;58.44;101589.81;4994456;28;7310;-72
2021/12/14 03:07:33;;;;;;;;;;;;;;;12.28;58.40;101584.66;4996507;28;6907;-72
2021/12/14 03:10:20;;;;;;;;;;;;;;;12.27;57.84;101562.34;4976829;28;7230;-73
2021/12/14 03:12:51;;;;;;;;;;;;;;;12.25;57.85;101557.09;4994051;28;6836;-72
2021/12/14 03:15:36;;;;;;;;;;;;;;;12.21;58.63;101579.16;4995064;28;7272;-72
2021/12/14 03:18:10;;;;;;;;;;;;;;;12.22;58.75;101580.03;4995537;28;7270;-72
2021/12/14 03:20:48;;;;;;;;;;;;;;;12.21;58.66;101574.00;4993952;28;7162;-72
2021/12/14 03:23:22;;;;;;;;;;;;;;;12.21;58.57;101575.72;5015283;28;6815;-72
2021/12/14 03:25:54;;;;;;;;;;;;;;;12.20;58.49;101581.66;4995767;28;6815;-72
2021/12/14 03:28:25;;;;;;;;;;;;;;;12.21;58.90;101580.84;4995017;28;6816;-72
2021/12/14 03:31:11;;;;;;;;;;;;;;;12.19;59.08;101579.88;5014855;28;6819;-72
2021/12/14 03:34:04;;;;;;;;;;;;;;;12.18;58.71;101580.66;4995371;28;8264;-72
2021/12/14 03:36:39;;;;;;;;;;;;;;;12.21;58.75;101575.72;4985659;28;7452;-72
2021/12/14 03:39:08;;;;;;;;;;;;;;;12.22;59.05;101585.19;4993470;28;7249;-72
2021/12/14 03:41:40;;;;;;;;;;;;;;;12.24;59.14;101582.72;5016042;28;6879;-72
2021/12/14 03:44:28;;;;;;;;;;;;;;;12.25;59.05;101574.22;4995269;28;7884;-72
2021/12/14 03:47:06;;;;;;;;;;;;;;;12.24;58.73;101578.44;5011785;28;7277;-72
2021/12/14 03:49:43;;;;;;;;;;;;;;;12.21;59.22;101574.00;5013004;28;7042;-72
2021/12/14 03:52:14;;;;;;;;;;;;;;;12.21;59.15;101573.13;4978159;28;8152;-73
2021/12/14 03:54:42;;;;;;;;;;;;;;;12.17;58.98;101576.34;4993463;28;7183;-72
2021/12/14 03:57:09;;;;;;;;;;;;;;;12.13;59.24;101569.22;4978672;28;7042;-72
2021/12/14 03:59:36;;;;;;;;;;;;;;;12.13;59.08;101574.34;4994671;28;7214;-72
2021/12/14 04:02:07;;;;;;;;;;;;;;;12.13;59.37;101570.13;4995340;28;7005;-72
2021/12/14 04:04:47;;;;;;;;;;;;;;;12.13;59.05;101567.53;4994596;28;7145;-72
2021/12/14 04:07:15;;;;;;;;;;;;;;;12.11;59.16;101561.41;5010148;28;7152;-72
2021/12/14 04:09:43;;;;;;;;;;;;;;;12.12;58.88;101563.19;5013362;28;6811;-72
2021/12/14 04:12:18;;;;;;;;;;;;;;;12.12;59.11;101578.63;4995248;28;6958;-72
2021/12/14 04:14:54;;;;;;;;;;;;;;;12.13;59.06;101579.50;4996464;28;8081;-72
2021/12/14 04:17:25;;;;;;;;;;;;;;;12.12;59.51;101586.34;4981282;28;7213;-72
2021/12/14 04:19:52;;;;;;;;;;;;;;;12.13;59.54;101584.63;4996633;28;6812;-72
2021/12/14 04:22:24;;;;;;;;;;;;;;;12.13;59.35;101584.63;4992607;28;7054;-72
2021/12/14 04:24:55;;;;;;;;;;;;;;;12.12;59.09;101577.72;4997567;28;8082;-72
2021/12/14 04:27:27;;;;;;;;;;;;;;;12.11;59.40;101575.94;5013203;28;7145;-72
2021/12/14 04:29:54;;;;;;;;;;;;;;;12.10;59.02;101581.88;4997640;28;8320;-72
2021/12/14 04:32:20;;;;;;;;;;;;;;;12.10;59.98;101584.47;5013444;28;10534;-72
2021/12/14 04:34:49;;;;;;;;;;;;;;;12.06;59.41;101596.22;5010928;28;7234;-72
2021/12/14 04:37:18;;;;;;;;;;;;;;;12.04;59.21;101601.25;5003579;28;7867;-72
2021/12/14 04:39:50;;;;;;;;;;;;;;;12.02;59.42;101605.44;4997828;28;7022;-72
2021/12/14 04:54:01;;;;;;;;;;;;;;;11.88;60.45;101619.94;5001679;28;7127;-72
2021/12/14 04:56:39;;;;;;;;;;;;;;;11.87;59.91;101627.56;4996972;28;7038;-72
2021/12/14 04:59:28;;;;;;;;;;;;;;;11.88;60.20;101630.22;4975186;28;6987;-72
2021/12/14 05:02:10;;;;;;;;;;;;;;;11.91;60.51;101619.25;5000880;28;6816;-72
2021/12/14 05:04:37;;;;;;;;;;;;;;;11.92;60.27;101621.03;5011235;28;7540;-72
2021/12/14 05:07:26;;;;;;;;;;;;;;;11.92;60.43;101614.19;5012767;28;6792;-72
2021/12/14 05:09:50;;;;;;;;;;;;;;;11.91;60.21;101617.56;4999562;28;7209;-72
2021/12/14 05:12:22;;;;;;;;;;;;;;;11.91;60.31;101612.44;4995215;28;7261;-72
2021/12/14 05:14:49;;;;;;;;;;;;;;;11.92;60.16;101616.75;4993456;28;7002;-72
2021/12/14 05:17:31;;;;;;;;;;;;;;;11.93;60.62;101612.53;4985470;28;6804;-72
2021/12/14 05:19:56;;;;;;;;;;;;;;;11.92;60.21;101613.31;4996316;28;7140;-72
2021/12/14 05:22:34;;;;;;;;;;;;;;;11.90;60.59;101608.09;5011006;28;6787;-72
2021/12/14 05:25:13;;;;;;;;;;;;;;;11.89;60.68;101600.31;4999064;28;6807;-72
2021/12/14 05:27:48;;;;;;;;;;;;;;;11.85;60.09;101598.31;5012172;28;6804;-72
2021/12/14 05:30:24;;;;;;;;;;;;;;;11.80;60.50;101601.50;4999603;28;6835;-72
2021/12/14 05:32:58;;;;;;;;;;;;;;;11.78;60.24;101597.97;5012669;28;7218;-72
2021/12/14 05:35:25;;;;;;;;;;;;;;;11.76;60.52;101596.09;4995069;28;6891;-72
2021/12/14 05:37:54;;;;;;;;;;;;;;;11.73;60.53;101599.34;5012153;28;7046;-72
2021/12/14 05:40:43;;;;;;;;;;;;;;;11.72;60.78;101605.28;4996314;28;7947;-72
2021/12/14 05:43:28;;;;;;;;;;;;;;;11.71;60.78;101607.72;5012301;28;8700;-72
2021/12/14 05:46:03;;;;;;;;;;;;;;;11.70;60.79;101603.38;5013436;28;7010;-72
2021/12/14 05:48:34;;;;;;;;;;;;;;;11.71;60.77;101606.06;4979445;28;6811;-72
2021/12/14 05:51:07;;;;;;;;;;;;;;;11.71;60.74;101595.78;5013597;28;7334;-73
2021/12/14 05:53:38;;;;;;;;;;;;;;;11.73;61.10;101601.00;4978171;28;6976;-73
2021/12/14 05:56:25;;;;;;;;;;;;;;;11.72;60.78;101607.84;4987643;28;6808;-73
2021/12/14 05:58:55;;;;;;;;;;;;;;;11.73;60.89;101599.34;5019173;28;8201;-72
2021/12/14 06:01:28;;;;;;;;;;;;;;;11.73;60.71;101589.06;4982612;28;7868;-72
2021/12/14 06:03:59;;;;;;;;;;;;;;;11.73;60.71;101589.06;4995658;28;6892;-72
2021/12/14 06:06:37;;;;;;;;;;;;;;;11.72;60.47;101584.72;4994912;28;7854;-72
2021/12/14 06:09:39;;;;;;;;;;;;;;;11.71;61.05;101584.63;4990369;28;7880;-72
2021/12/14 06:12:15;;;;;;;;;;;;;;;11.70;60.91;101594.03;4965322;28;6993;-72
2021/12/14 06:14:51;;;;;;;;;;;;;;;11.69;60.53;101592.25;5010985;28;7043;-72
2021/12/14 06:17:32;;;;;;;;;;;;;;;11.70;60.57;101604.28;5011316;28;6824;-72
2021/12/14 06:20:14;;;;;;;;;;;;;;;11.69;60.60;101597.38;4979712;28;7887;-72
2021/12/14 06:22:42;;;;;;;;;;;;;;;11.70;60.78;101599.16;4996320;28;6888;-72
2021/12/14 06:25:14;;;;;;;;;;;;;;;11.71;60.73;101606.06;4998110;28;6816;-72
2021/12/14 06:27:40;;;;;;;;;;;;;;;11.71;60.26;101608.63;4974961;28;6811;-72
2021/12/14 06:30:13;;;;;;;;;;;;;;;11.74;60.20;101607.94;4998484;28;6991;-72
2021/12/14 06:32:51;;;;;;;;;;;;;;;11.74;60.50;101611.38;4981449;28;6983;-73
2021/12/14 06:35:23;;;;;;;;;;;;;;;11.74;60.19;101616.53;4962724;28;7371;-73
2021/12/14 06:38:28;;;;;;;;;;;;;;;11.74;60.78;101619.09;4992484;28;6827;-73
2021/12/14 06:41:15;;;;;;;;;;;;;;;11.76;60.14;101614.06;4994682;28;6823;-73
2021/12/14 06:43:48;;;;;;;;;;;;;;;11.76;60.20;101607.22;5013406;28;7239;-73
2021/12/14 06:46:29;;;;;;;;;;;;;;;11.75;60.15;101608.03;4996717;28;7214;-73
2021/12/14 06:49:06;;;;;;;;;;;;;;;11.75;60.36;101602.88;4979026;28;9511;-73
2021/12/14 06:51:44;;;;;;;;;;;;;;;11.73;59.84;101599.34;4996177;28;7346;-72
2021/12/14 06:54:24;;;;;;;;;;;;;;;11.74;60.39;101615.66;4966069;28;7445;-72
2021/12/14 06:56:57;;;;;;;;;;;;;;;11.72;60.24;101617.22;4993419;28;7185;-73
2021/12/14 06:59:23;;;;;;;;;;;;;;;11.72;60.67;101623.25;5004051;28;7185;-73
2021/12/14 07:01:54;;;;;;;;;;;;;;;11.73;59.95;101616.41;5012602;28;6962;-73
2021/12/14 07:04:34;;;;;;;;;;;;;;;11.73;60.47;101611.28;5009704;28;6891;-73
2021/12/14 07:07:05;;;;;;;;;;;;;;;11.71;60.44;101616.34;4995756;28;7237;-73
2021/12/14 07:09:39;;;;;;;;;;;;;;;11.72;60.43;101618.13;4994412;28;7232;-73
2021/12/14 07:12:17;;;;;;;;;;;;;;;11.72;59.81;101622.34;4993647;28;6823;-73
2021/12/14 07:14:49;;;;;;;;;;;;;;;11.72;60.08;101630.06;5012287;28;6807;-73
2021/12/14 07:17:26;;;;;;;;;;;;;;;11.72;59.99;101635.19;5010444;28;6839;-72
2021/12/14 07:20:00;;;;;;;;;;;;;;;11.73;60.18;101637.88;4993867;28;6839;-72
2021/12/14 07:22:29;;;;;;;;;;;;;;;11.75;60.08;101641.41;4995047;28;7205;-72
2021/12/14 07:24:57;;;;;;;;;;;;;;;11.77;60.29;101639.81;5014683;28;6815;-72
2021/12/14 07:27:29;;;;;;;;;;;;;;;11.79;60.11;101650.19;5014293;28;6796;-72
2021/12/14 07:30:21;;;;;;;;;;;;;;;11.83;60.06;101648.72;5007542;28;7220;-72
2021/12/14 07:33:23;;;;;;;;;;;;;;;11.85;59.95;101647.13;4993241;28;7200;-73
2021/12/14 07:35:52;;;;;;;;;;;;;;;11.86;59.72;101656.59;4985674;28;7078;-72
2021/12/14 07:38:41;;;;;;;;;;;;;;;11.88;59.80;101661.06;5007910;28;7223;-72
2021/12/14 07:41:43;;;;;;;;;;;;;;;11.90;59.24;101668.88;4992986;28;6827;-73
2021/12/14 07:44:20;;;;;;;;;;;;;;;11.89;60.06;101661.97;4994095;28;6808;-73
2021/12/14 07:46:52;;;;;;;;;;;;;;;11.91;59.86;101668.06;5007331;28;8060;-73
2021/12/14 07:49:42;;;;;;;;;;;;;;;11.91;59.81;101680.91;4993620;28;7023;-73
2021/12/14 07:52:08;;;;;;;;;;;;;;;11.90;59.71;101685.16;4998421;28;6891;-73
2021/12/14 07:54:48;;;;;;;;;;;;;;;11.89;59.71;101683.38;5015977;28;7120;-73
2021/12/14 07:57:32;;;;;;;;;;;;;;;11.91;59.30;101706.63;4996503;28;7128;-73
2021/12/14 08:00:28;;;;;;;;;;;;;;;11.90;59.29;101702.28;4993514;28;6812;-73
2021/12/14 08:02:58;;;;;;;;;;;;;;;11.91;59.47;101717.75;4984275;28;7275;-73
2021/12/14 08:05:31;;;;;;;;;;;;;;;11.92;59.41;101718.66;4982298;28;6980;-73
2021/12/14 08:08:20;;;;;;;;;;;;;;;11.95;59.48;101711.13;5010735;28;6815;-72
2021/12/14 08:11:09;;;;;;;;;;;;;;;11.95;59.83;101729.13;4977553;28;7012;-72
2021/12/14 08:13:44;;;;;;;;;;;;;;;11.97;59.05;101722.41;4992660;28;6911;-72
2021/12/14 08:16:10;;;;;;;;;;;;;;;12.00;59.50;101724.28;4994481;28;7177;-72
2021/12/14 08:18:38;;;;;;;;;;;;;;;12.01;58.89;101732.09;5014367;28;8115;-72
2021/12/14 08:21:17;;;;;;;;;;;;;;;12.02;59.32;101726.19;4988651;28;6998;-73
2021/12/14 08:24:06;;;;;;;;;;;;;;;12.05;59.06;101723.81;4997331;28;6820;-73
2021/12/14 08:26:43;;;;;;;;;;;;;;;12.04;59.16;101726.31;5011877;28;7164;-72
2021/12/14 08:29:29;;;;;;;;;;;;;;;12.04;59.33;101729.75;5000201;28;7154;-72
2021/12/14 08:32:05;;;;;;;;;;;;;;;12.05;59.13;101731.53;4994832;28;6823;-73
2021/12/14 08:34:36;;;;;;;;;;;;;;;12.06;59.08;101733.28;5015581;28;6816;-73
2021/12/14 08:37:15;;;;;;;;;;;;;;;12.07;59.11;101740.25;5012370;28;7069;-73
2021/12/14 08:39:45;;;;;;;;;;;;;;;12.08;59.14;101742.00;4995450;28;8090;-72
2021/12/14 08:43:04;;;;;;;;;;;;;;;12.11;58.67;101735.28;5014646;28;7468;-72
2021/12/14 08:45:40;;;;;;;;;;;;;;;12.08;58.95;101742.00;5007433;28;7915;-72
2021/12/14 08:48:11;;;;;;;;;;;;;;;12.10;58.74;101728.38;5013744;28;7078;-72
2021/12/14 08:50:45;;;;;;;;;;;;;;;12.11;59.36;101727.56;4994662;28;6808;-72
2021/12/14 08:53:14;;;;;;;;;;;;;;;12.10;59.21;101718.09;4995708;28;6866;-72
2021/12/14 08:55:46;;;;;;;;;;;;;;;12.12;59.44;101731.91;4992414;28;6807;-72
2021/12/14 08:58:13;;;;;;;;;;;;;;;12.14;59.25;101741.50;4994990;28;7658;-72
2021/12/14 09:00:50;;;;;;;;;;;;;;;12.17;58.99;101738.25;5001995;28;6808;-72
2021/12/14 09:03:32;;;;;;;;;;;;;;;12.19;59.09;101749.50;5001455;28;6899;-72
2021/12/14 09:06:05;;;;;;;;;;;;;;;12.25;59.38;101738.72;4985281;28;7243;-72
2021/12/14 09:08:31;;;;;;;;;;;;;;;12.24;58.47;101737.81;5004059;28;7225;-72
2021/12/14 09:10:58;;;;;;;;;;;;;;;12.23;59.25;101733.47;5013086;28;6815;-72
2021/12/14 09:13:26;;;;;;;;;;;;;;;12.23;59.35;101738.63;4999753;28;6897;-73
2021/12/14 09:16:09;;;;;;;;;;;;;;;12.23;59.17;101736.03;4997012;28;7815;-72
2021/12/14 09:18:43;;;;;;;;;;;;;;;12.25;58.95;101733.56;4982633;28;7096;-72
2021/12/14 09:21:21;;;;;;;;;;;;;;;12.25;58.80;101726.75;4985214;28;8175;-72
2021/12/14 09:23:58;;;;;;;;;;;;;;;12.24;58.76;101717.25;4982891;28;6996;-72
2021/12/14 09:26:31;;;;;;;;;;;;;;;12.26;59.15;101712.22;4975970;28;7003;-72
2021/12/14 09:28:58;;;;;;;;;;;;;;;12.25;58.32;101718.16;5000890;28;8137;-73
2021/12/14 09:31:31;;;;;;;;;;;;;;;12.25;58.79;101729.31;4989740;28;7003;-73
2021/12/14 09:33:59;;;;;;;;;;;;;;;12.27;59.11;101740.59;5015822;28;6980;-72
2021/12/14 09:36:29;;;;;;;;;;;;;;;12.29;59.08;101736.44;4999849;28;6982;-73
2021/12/14 09:39:09;;;;;;;;;;;;;;;12.34;59.05;101734.16;4996579;28;6799;-73
2021/12/14 09:41:36;;;;;;;;;;;;;;;12.39;58.55;101735.31;4993403;28;7199;-72
2021/12/14 09:44:08;;;;;;;;;;;;;;;12.42;58.42;101738.09;5015448;28;6876;-72
2021/12/14 09:46:36;;;;;;;;;;;;;;;12.45;59.10;101742.50;5015400;28;6816;-72
2021/12/14 09:49:07;;;;;;;;;;;;;;;12.47;58.53;101738.38;5018719;28;6816;-72
2021/12/14 09:51:38;;;;;;;;;;;;;;;12.47;58.73;101735.81;5013560;28;7031;-72
2021/12/14 09:54:19;;;;;;;;;;;;;;;12.48;58.38;101740.16;5001171;28;7093;-72
2021/12/14 09:56:52;;;;;;;;;;;;;;;12.51;58.38;101745.47;4998873;28;6824;-72
2021/12/14 09:59:19;;;;;;;;;;;;;;;12.52;58.19;101739.53;4998923;28;7015;-72
2021/12/14 10:01:56;;;;;;;;;;;;;;;12.54;58.37;101735.38;4998075;28;7318;-72
2021/12/14 10:04:33;;;;;;;;;;;;;;;12.55;58.23;101737.13;5018775;28;7013;-72
2021/12/14 10:07:03;;;;;;;;;;;;;;;12.58;58.91;101734.78;4999054;28;7551;-72
2021/12/14 10:09:37;;;;;;;;;;;;;;;12.63;58.29;101735.94;4999654;28;7092;-72
2021/12/14 10:12:41;;;;;;;;;;;;;;;12.67;58.92;101742.16;4983337;28;7096;-72
2021/12/14 10:15:18;;;;;;;;;;;;;;;12.71;58.65;101743.22;5015471;28;6836;-73
2021/12/14 10:17:45;;;;;;;;;;;;;;;12.73;57.69;101744.22;4996564;28;6831;-73
2021/12/14 10:20:23;;;;;;;;;;;;;;;12.77;58.33;101743.63;5003921;28;7024;-72
2021/12/14 10:22:51;;;;;;;;;;;;;;;12.78;58.57;101751.41;5005848;28;6989;-73
2021/12/14 10:25:23;;;;;;;;;;;;;;;12.82;58.17;101762.78;5011919;28;6916;-73
2021/12/14 10:27:50;;;;;;;;;;;;;;;12.84;58.20;101758.59;5012650;28;6812;-73
2021/12/14 10:30:30;;;;;;;;;;;;;;;12.87;58.14;101750.19;4999121;28;6850;-73
2021/12/14 10:32:58;;;;;;;;;;;;;;;12.87;58.23;101755.34;5012399;28;6811;-73
2021/12/14 10:35:36;;;;;;;;;;;;;;;12.90;57.42;101751.25;5000734;28;6803;-73
2021/12/14 10:38:18;;;;;;;;;;;;;;;12.94;58.28;101746.28;5004544;28;6823;-73
2021/12/14 10:43:37;;;;;;;;;;;;;;;12.97;57.88;101738.78;4997907;28;7017;-73
2021/12/14 10:46:12;;;;;;;;;;;;;;;12.98;58.00;101744.00;4999853;28;6980;-74
2021/12/14 10:48:43;;;;;;;;;;;;;;;13.02;57.51;101737.34;4995625;28;6997;-74
2021/12/14 10:51:13;;;;;;;;;;;;;;;13.02;57.83;101738.25;4985865;28;7205;-73
2021/12/14 10:53:45;;;;;;;;;;;;;;;13.03;57.49;101740.03;5011935;28;7255;-73
2021/12/14 10:56:16;;;;;;;;;;;;;;;13.06;58.05;101747.03;4993970;28;6877;-73
2021/12/14 10:58:47;;;;;;;;;;;;;;;13.10;56.99;101745.53;4975396;28;6816;-74
2021/12/14 11:01:26;;;;;;;;;;;;;;;13.17;58.18;101748.56;4994175;28;7027;-73
2021/12/14 11:03:57;;;;;;;;;;;;;;;13.23;57.20;101736.81;4991200;28;6966;-73
2021/12/14 11:06:29;;;;;;;;;;;;;;;13.28;57.93;101730.28;5008975;28;7083;-73
2021/12/14 11:11:49;;;;;;;;;;;;;;;13.31;56.71;101733.91;5007638;28;7201;-73
2021/12/14 11:14:22;;;;;;;;;;;;;;;13.33;57.72;101731.44;4984960;28;6828;-72
2021/12/14 11:20:17;;;;;;;;;;;;;;;13.38;56.99;101732.59;5011405;28;6808;-73
2021/12/14 11:23:06;;;;;;;;;;;;;;;13.39;56.28;101733.50;4991361;28;7892;-73
2021/12/14 11:26:03;;;;;;;;;;;;;;;13.38;56.62;101727.44;5010277;28;7009;-73
2021/12/14 11:28:50;;;;;;;;;;;;;;;13.37;56.66;101720.50;5000355;28;6991;-72
2021/12/14 11:31:51;;;;;;;;;;;;;;;13.38;56.46;101722.28;5003162;28;6808;-72
2021/12/14 11:34:36;;;;;;;;;;;;;;;13.38;57.04;101719.72;5013001;28;6816;-73
2021/12/14 11:37:08;;;;;;;;;;;;;;;13.40;56.20;101717.22;4992426;28;6808;-73
2021/12/14 11:39:49;;;;;;;;;;;;;;;13.43;56.35;101714.81;4985667;28;6899;-73
2021/12/14 11:42:26;;;;;;;;;;;;;;;13.47;57.31;101716.78;4995548;28;6816;-73
2021/12/14 11:45:11;;;;;;;;;;;;;;;13.52;56.37;101715.38;5009935;28;6827;-73
2021/12/14 11:47:46;;;;;;;;;;;;;;;13.53;56.48;101712.00;4994956;28;7180;-73
2021/12/14 11:50:13;;;;;;;;;;;;;;;13.58;56.07;101714.84;5002949;28;7493;-72
2021/12/14 11:53:05;;;;;;;;;;;;;;;13.63;55.99;101705.69;5008316;28;6783;-72
2021/12/14 11:55:47;;;;;;;;;;;;;;;13.67;56.48;101711.91;4993444;28;6824;-72
2021/12/14 11:59:06;;;;;;;;;;;;;;;13.71;55.90;101707.03;4992546;28;6808;-72
2021/12/14 12:01:41;;;;;;;;;;;;;;;13.74;56.91;101706.28;4961864;28;7272;-72
2021/12/14 12:04:31;;;;;;;;;;;;;;;13.76;56.50;101709.81;5012906;28;7868;-73
2021/12/14 12:09:45;;;;;;;;;;;;;;;13.76;56.21;101709.81;4991096;28;6816;-72
2021/12/14 12:12:23;;;;;;;;;;;;;;;13.76;55.47;101709.81;5014888;28;6823;-72
2021/12/14 12:15:09;;;;;;;;;;;;;;;13.80;56.33;101705.72;5010365;28;7126;-72
2021/12/14 12:17:58;;;;;;;;;;;;;;;13.83;55.37;101709.38;5010211;28;6820;-73
2021/12/14 12:20:49;;;;;;;;;;;;;;;13.87;55.76;101700.13;5001457;28;7062;-73
2021/12/14 12:23:24;;;;;;;;;;;;;;;13.89;55.56;101695.94;5013888;28;6824;-72
2021/12/14 12:26:00;;;;;;;;;;;;;;;13.92;56.07;101698.72;4994416;28;6989;-72
2021/12/14 12:28:29;;;;;;;;;;;;;;;13.93;56.18;101695.31;4977801;28;7172;-72
2021/12/14 12:31:07;;;;;;;;;;;;;;;13.96;55.31;101698.06;5002813;28;7229;-72
2021/12/14 12:33:46;;;;;;;;;;;;;;;13.97;55.68;101692.09;5005162;28;8252;-72
2021/12/14 12:36:20;;;;;;;;;;;;;;;13.99;55.94;101697.34;4975732;28;7117;-73
2021/12/14 12:39:14;;;;;;;;;;;;;;;14.01;55.91;101693.16;4996860;28;7217;-73
2021/12/14 12:41:49;;;;;;;;;;;;;;;14.03;54.87;101679.56;4996893;28;6900;-72
2021/12/14 12:44:30;;;;;;;;;;;;;;;14.09;55.26;101683.25;5003809;28;6968;-72
2021/12/14 12:47:05;;;;;;;;;;;;;;;14.16;55.97;101698.25;5000376;28;7702;-72
2021/12/14 12:49:42;;;;;;;;;;;;;;;14.22;55.86;101684.81;4999167;28;6811;-72
2021/12/14 12:52:22;;;;;;;;;;;;;;;14.28;55.21;101685.13;5001948;28;6895;-72
2021/12/14 12:55:21;;;;;;;;;;;;;;;14.33;54.88;101694.00;5017997;28;6831;-72
2021/12/14 12:57:55;;;;;;;;;;;;;;;14.39;55.16;101694.31;5014870;28;6808;-72
2021/12/14 13:00:46;;;;;;;;;;;;;;;14.44;55.26;101698.06;5000441;28;6997;-72
2021/12/14 13:03:26;;;;;;;;;;;;;;;14.45;55.49;101693.75;5017615;28;7270;-72
2021/12/14 13:06:05;;;;;;;;;;;;;;;14.43;54.35;101698.84;4998600;28;7198;-72
2021/12/14 13:08:46;;;;;;;;;;;;;;;14.39;55.16;101688.28;5001561;28;7876;-72
2021/12/14 13:11:21;;;;;;;;;;;;;;;14.33;54.24;101699.16;5002295;28;7263;-72
2021/12/14 13:14:04;;;;;;;;;;;;;;;14.29;54.66;101703.28;4995423;28;7245;-73
2021/12/14 13:16:41;;;;;;;;;;;;;;;14.24;55.05;101698.66;4994876;28;6812;-73
2021/12/14 13:19:19;;;;;;;;;;;;;;;14.21;55.18;101694.25;5000292;28;6968;-73
2021/12/14 13:21:53;;;;;;;;;;;;;;;14.17;54.92;101697.44;4983634;28;7191;-72
2021/12/14 13:24:37;;;;;;;;;;;;;;;14.13;54.85;101691.22;5014801;28;6796;-72
2021/12/14 13:27:24;;;;;;;;;;;;;;;14.12;54.58;101698.91;5016968;28;6983;-72
2021/12/14 13:30:05;;;;;;;;;;;;;;;14.09;54.81;101683.25;4995826;28;6958;-72
2021/12/14 13:32:38;;;;;;;;;;;;;;;14.06;55.45;101677.94;5013674;28;7045;-72
2021/12/14 13:35:23;;;;;;;;;;;;;;;14.02;55.34;101682.03;5000221;28;7203;-72
2021/12/14 13:38:10;;;;;;;;;;;;;;;14.00;55.89;101691.38;4988379;28;6815;-73
2021/12/14 13:40:44;;;;;;;;;;;;;;;14.00;55.63;101686.22;4999909;28;7173;-72
2021/12/14 13:43:21;;;;;;;;;;;;;;;14.00;56.14;101684.56;4998007;28;8269;-72
2021/12/14 13:45:55;;;;;;;;;;;;;;;13.98;55.15;101685.25;5006072;28;6990;-72
2021/12/14 13:48:36;;;;;;;;;;;;;;;13.97;55.96;101679.22;4999177;28;6927;-72
2021/12/14 13:51:12;;;;;;;;;;;;;;;14.00;56.26;101675.91;4997522;28;6835;-73
2021/12/14 13:53:40;;;;;;;;;;;;;;;14.02;55.92;101682.03;5005422;28;6828;-72
2021/12/14 13:56:12;;;;;;;;;;;;;;;14.07;55.21;101690.03;4997048;28;8180;-73
2021/12/14 13:58:39;;;;;;;;;;;;;;;14.08;56.01;101687.53;5006569;28;7244;-73
2021/12/14 14:01:20;;;;;;;;;;;;;;;14.10;56.03;101692.75;4997273;28;6804;-73
2021/12/14 14:03:57;;;;;;;;;;;;;;;14.09;55.04;101693.56;4996680;28;6903;-72
2021/12/14 14:06:24;;;;;;;;;;;;;;;14.10;56.02;101703.97;5003735;28;6891;-72